Home   Weather   Germany   Munich   Past weeks
Flag for Germany

Past Weather in Munich, Bavaria, Germany — May 2023

Currently: 57 °F. Scattered clouds. (Weather station: Oberpfaffenhofen, Germany). See more current weather

May 2023 Weather in Munich — Graph

°F

High & Low Weather Summary for May 2023

 TemperatureHumidityPressure
High77 °F (May 21, 2:50 pm)100% (May 1, 6:50 am)30.27 "Hg (May 1, 6:50 am)
Low36 °F (May 3, 4:20 am)29% (May 28, 6:50 pm)29.83 "Hg (May 9, 7:20 pm)
Average55 °F77%30.06 "Hg
* Reported May 1 12:20 am — May 31 11:50 pm, Munich. Weather by CustomWeather, © 2024

Note: Actual official high and low records may vary slightly from our data, if they occured in-between our weather recording intervals... More about our weather records

Munich Weather History for May 1, 2023

Scroll right to see more
 ConditionsComfort  
Time TempWeatherWind HumidityBarometerVisibility
12:20 am
Mon, May 1
50 °FOvercast.7 mph67%30.01 "HgN/A
12:50 am48 °FPassing clouds.3 mph66%30.01 "HgN/A
1:20 am45 °FPassing clouds.6 mph76%30.01 "HgN/A
2:50 am43 °FOvercast.No wind87%29.98 "HgN/A
3:20 am43 °FOvercast.3 mph81%29.98 "HgN/A
3:50 am41 °FOvercast.1 mph87%29.98 "HgN/A
4:20 am41 °FPassing clouds.2 mph93%29.98 "HgN/A
4:50 am41 °FPassing clouds.3 mph93%29.95 "HgN/A
5:20 am39 °FPassing clouds.No wind93%29.95 "HgN/A
5:50 am39 °FPassing clouds.2 mph93%29.95 "HgN/A
6:20 am39 °FScattered clouds.1 mph93%29.95 "HgN/A
6:50 am39 °FPartly sunny.1 mph100%29.95 "HgN/A
7:20 am43 °FOvercast.1 mph93%29.95 "HgN/A
7:50 am45 °FPartly sunny.1 mph87%29.95 "HgN/A
8:20 am45 °FPartly sunny.No wind81%29.95 "HgN/A
8:50 am46 °FBroken clouds.1 mph82%29.95 "HgN/A
9:20 am48 °FPartly sunny.5 mph76%29.95 "HgN/A
10:20 am46 °FOvercast.6 mph93%29.98 "HgN/A
11:20 am46 °FMostly cloudy.6 mph93%29.98 "Hg5 mi
11:50 am48 °FMostly cloudy.6 mph94%29.98 "HgN/A
12:20 pm48 °FMore clouds than sun.6 mph94%29.98 "HgN/A
12:50 pm50 °FMore clouds than sun.6 mph94%29.98 "HgN/A
1:20 pm50 °FMore clouds than sun.7 mph88%29.98 "HgN/A
1:50 pm50 °FMostly cloudy.5 mph94%29.98 "HgN/A
2:50 pm52 °FMore clouds than sun.7 mph88%29.98 "HgN/A
3:20 pm54 °FMostly cloudy.6 mph77%29.98 "HgN/A
3:50 pm54 °FMore clouds than sun.5 mph77%29.98 "HgN/A
4:20 pm54 °FOvercast.5 mph77%29.98 "HgN/A
4:50 pm55 °FOvercast.6 mph72%29.98 "HgN/A
5:20 pm54 °FOvercast.7 mph77%29.98 "HgN/A
6:50 pm50 °FMore clouds than sun.7 mph94%29.98 "HgN/A
7:20 pm50 °FLight rain. Partly sunny.3 mph100%29.98 "HgN/A
7:50 pm50 °FMostly cloudy.8 mph94%30.01 "HgN/A
8:20 pm50 °FMostly cloudy.8 mph94%30.01 "HgN/A
8:50 pm50 °FOvercast.8 mph94%30.01 "Hg6 mi
9:20 pm50 °FOvercast.9 mph94%30.04 "HgN/A
9:50 pm48 °FLow clouds.8 mph100%30.04 "HgN/A
10:20 pm48 °FMostly cloudy.10 mph94%30.04 "HgN/A
10:50 pm48 °FOvercast.9 mph94%30.04 "HgN/A
11:20 pm48 °FOvercast.10 mph94%30.04 "HgN/A
11:50 pm48 °FMostly cloudy.12 mph94%30.04 "HgN/A
Weather by CustomWeather, © 2024

See weather overview